Terminal Aerodrome Forecast
Issued by NWS

Home | Current Version | Previous Version | Text Only | Print | Product List | Glossary Off
Versions: 1 2 3 4 5 6 7 8 9 10 11 12 13

000
FTUS45 KGGW 270520
TAFOLF
TAF
KOLF 270520Z 2706/2806 08006KT P6SM SCT090
     FM270700 VRB20G30KT 3SM -TSRA BKN060CB
     FM270830 06006KT P6SM -SHRA BKN070
     FM271030 09006KT P6SM VCSH BKN080
     FM280000 09005KT P6SM VCTS BKN060CB=

USA.gov is the U.S. government's official web portal to all federal, state and local government web resources and services.